| Date | Time | Temp. (oF) | Dew Point (oF) | Rel. Hum. (%) | Press. (in.) | Wind Dir. | Wind Speed (mph) | Hourly Rainfall (in.) |
|
|---|---|---|---|---|---|---|---|---|---|
| 1 | 02/13 | 00:00 | 40 | 24 | 54 | 29.96 | W | 10 | 0.00 |
| 2 | 02/12 | 23:00 | 42 | 24 | 49 | 29.95 | WNW | 11 | 0.00 |
| 3 | 02/12 | 22:00 | 43 | 26 | 51 | 29.93 | W | 7 | 0.00 |
| 4 | 02/12 | 21:00 | 42 | 25 | 52 | 29.91 | W | 6 | 0.00 |
| 5 | 02/12 | 20:00 | 40 | 23 | 51 | 29.90 | W | 5 | 0.00 |
| 6 | 02/12 | 19:00 | 41 | 23 | 49 | 29.88 | SW | 6 | 0.00 |
| 7 | 02/12 | 18:00 | 43 | 23 | 45 | 29.84 | SSW | 2 | 0.00 |
| 8 | 02/12 | 17:00 | 45 | 23 | 42 | 29.82 | S | 6 | 0.00 |
| 9 | 02/12 | 16:00 | 44 | 22 | 42 | 29.82 | S | 9 | 0.00 |
| 10 | 02/12 | 15:00 | 42 | 21 | 43 | 29.82 | S | 14 | 0.00 |
| 11 | 02/12 | 14:00 | 41 | 20 | 43 | 29.83 | SSW | 11 | 0.00 |
| 12 | 02/12 | 13:00 | 40 | 18 | 41 | 29.86 | S | 18 | 0.00 |
| 13 | 02/12 | 12:00 | 39 | 18 | 43 | 29.90 | S | 10 | 0.00 |
| 14 | 02/12 | 11:00 | 36 | 16 | 45 | 29.97 | SSW | 9 | 0.00 |
| 15 | 02/12 | 10:00 | 33 | 16 | 51 | 30.00 | SSW | 11 | 0.00 |
| 16 | 02/12 | 09:00 | 29 | 18 | 64 | 30.05 | S | 11 | 0.00 |
| 17 | 02/12 | 08:00 | 27 | 20 | 75 | 30.09 | S | 4 | 0.00 |
| 18 | 02/12 | 07:00 | 24 | 16 | 74 | 30.07 | S | 6 | 0.00 |
| 19 | 02/12 | 06:00 | 24 | 15 | 71 | 30.10 | SSW | 2 | 0.00 |
| 20 | 02/12 | 05:00 | 22 | 15 | 76 | 30.13 | S | 5 | 0.00 |
| 21 | 02/12 | 04:00 | 21 | 15 | 79 | 30.14 | SSE | 2 | 0.00 |
| 22 | 02/12 | 03:00 | 22 | 15 | 77 | 30.16 | SSW | 2 | 0.00 |
| 23 | 02/12 | 02:00 | 22 | 16 | 80 | 30.17 | NNE | 2 | 0.00 |
| 24 | 02/12 | 01:00 | 23 | 18 | 83 | 30.21 | WNW | 1 | 0.00 |